Time;durP1;ratioP1;P1;durP2;ratioP2;P2;SDS_P1;SDS_P2;PMS_P1;PMS_P2;Temp;Humidity;BMP_temperature;BMP_pressure;BME280_temperature;BME280_humidity;BME280_pressure;Samples;Min_cycle;Max_cycle;Signal;HPM_P1;HPM_P2
2021/11/27 00:00:22;;;;;;;3.75;1.50;;;19.30;58.40;;;;;;4785504;30;20191;-83
2021/11/27 00:02:51;;;;;;;2.30;0.90;;;19.20;58.20;;;;;;4769952;30;20199;-82
2021/11/27 00:05:17;;;;;;;1.42;1.20;;;19.30;58.30;;;;;;4784422;30;20191;-83
2021/11/27 00:07:43;;;;;;;1.33;1.00;;;19.30;58.30;;;;;;4784871;30;20235;-83
2021/11/27 00:10:13;;;;;;;2.22;1.15;;;19.20;58.10;;;;;;4785105;30;20249;-84
2021/11/27 00:12:39;;;;;;;4.28;1.30;;;19.20;58.20;;;;;;4785003;30;20172;-84
2021/11/27 00:15:07;;;;;;;3.42;1.10;;;19.30;58.40;;;;;;4769820;30;20243;-84
2021/11/27 00:17:34;;;;;;;1.75;1.02;;;19.30;58.20;;;;;;4770262;30;20168;-84
2021/11/27 00:20:00;;;;;;;2.35;1.48;;;19.30;58.10;;;;;;4784884;30;20160;-84
2021/11/27 00:22:27;;;;;;;2.08;1.10;;;19.30;58.00;;;;;;4785289;30;20263;-84
2021/11/27 00:24:54;;;;;;;1.85;1.00;;;19.30;58.90;;;;;;4770110;30;20195;-84
2021/11/27 00:27:20;;;;;;;1.70;1.10;;;19.30;57.90;;;;;;4784244;30;20176;-84
2021/11/27 00:29:47;;;;;;;3.47;1.00;;;19.30;58.20;;;;;;4784332;30;20223;-84
2021/11/27 00:32:12;;;;;;;2.95;1.25;;;19.20;58.30;;;;;;4770224;30;20659;-84
2021/11/27 00:34:38;;;;;;;2.47;1.10;;;19.20;57.90;;;;;;4769925;30;20236;-84
2021/11/27 00:37:04;;;;;;;5.43;1.30;;;19.20;58.20;;;;;;4785134;30;20175;-84
2021/11/27 00:39:29;;;;;;;3.25;1.38;;;19.20;58.20;;;;;;4784638;30;20164;-83
2021/11/27 00:41:55;;;;;;;2.33;1.20;;;19.20;58.00;;;;;;4784792;30;20175;-84
2021/11/27 00:44:22;;;;;;;1.30;0.90;;;19.30;58.30;;;;;;4784828;30;20219;-84
2021/11/27 00:46:49;;;;;;;2.10;1.00;;;19.20;58.30;;;;;;4770368;30;20171;-84
2021/11/27 00:49:16;;;;;;;2.42;1.40;;;19.30;58.30;;;;;;4784381;30;20183;-84
2021/11/27 00:51:45;;;;;;;2.58;1.35;;;19.20;58.50;;;;;;4784460;30;20235;-84
2021/11/27 00:54:11;;;;;;;1.88;1.25;;;19.20;58.30;;;;;;4783992;30;20266;-84
2021/11/27 00:56:36;;;;;;;3.22;1.35;;;19.20;58.30;;;;;;4784462;30;20167;-84
2021/11/27 00:59:03;;;;;;;2.17;1.10;;;19.20;58.40;;;;;;4769076;30;20186;-84
2021/11/27 01:01:31;;;;;;;2.33;1.20;;;19.10;58.20;;;;;;4784351;30;20196;-84
2021/11/27 01:03:57;;;;;;;2.13;1.23;;;19.20;58.40;;;;;;4784281;30;20191;-84
2021/11/27 01:06:27;;;;;;;1.85;1.10;;;19.30;58.50;;;;;;4787082;30;20651;-84
2021/11/27 01:08:56;;;;;;;2.47;1.30;;;19.20;58.40;;;;;;4787506;30;20227;-84
2021/11/27 01:11:39;;;;;;;3.83;1.20;;;19.20;58.20;;;;;;4788103;30;20163;-84
2021/11/27 01:14:08;;;;;;;3.92;1.50;;;19.20;58.00;;;;;;4773470;30;20680;-84
2021/11/27 01:16:37;;;;;;;2.60;1.10;;;19.20;58.10;;;;;;4772404;30;20185;-84
2021/11/27 01:19:03;;;;;;;3.30;1.02;;;19.20;58.30;;;;;;4772130;30;20185;-84
2021/11/27 01:21:32;;;;;;;1.20;1.00;;;19.20;57.90;;;;;;4773251;30;20319;-84
2021/11/27 01:23:59;;;;;;;1.30;1.00;;;19.20;57.90;;;;;;4787287;30;20192;-84
2021/11/27 01:26:25;;;;;;;3.53;1.20;;;19.20;58.10;;;;;;4787362;30;20541;-84
2021/11/27 01:28:52;;;;;;;2.35;1.05;;;19.20;57.80;;;;;;4787829;30;20156;-84
2021/11/27 01:31:20;;;;;;;2.13;1.10;;;19.20;58.10;;;;;;4788632;30;20178;-84
2021/11/27 01:33:45;;;;;;;3.15;1.27;;;19.20;57.60;;;;;;4802937;30;20184;-84
2021/11/27 01:36:13;;;;;;;3.22;1.30;;;19.20;58.00;;;;;;4787875;30;20214;-84
2021/11/27 01:38:40;;;;;;;3.38;1.48;;;19.20;58.10;;;;;;4772524;30;20179;-84
2021/11/27 01:41:06;;;;;;;1.98;1.17;;;19.20;57.60;;;;;;4787570;30;20167;-83
2021/11/27 01:43:32;;;;;;;3.58;1.20;;;19.10;57.90;;;;;;4787469;30;20257;-84
2021/11/27 01:45:58;;;;;;;2.25;1.30;;;19.10;57.80;;;;;;4787687;30;20171;-84
2021/11/27 01:48:28;;;;;;;1.45;1.23;;;19.10;57.40;;;;;;4772624;30;20172;-84
2021/11/27 01:50:57;;;;;;;3.53;1.13;;;19.20;57.80;;;;;;4787104;30;20172;-84
2021/11/27 01:53:26;;;;;;;2.47;0.95;;;19.10;58.00;;;;;;4772432;30;20172;-84
2021/11/27 01:55:55;;;;;;;1.30;1.00;;;19.10;57.80;;;;;;4788038;30;20192;-83
2021/11/27 01:58:22;;;;;;;2.33;1.08;;;19.10;57.50;;;;;;4771788;30;20247;-84
2021/11/27 02:00:56;;;;;;;1.73;1.13;;;19.10;57.60;;;;;;4787315;30;20164;-83
2021/11/27 02:03:22;;;;;;;1.92;1.38;;;19.10;57.40;;;;;;4772301;30;20229;-84
2021/11/27 02:05:47;;;;;;;2.75;1.38;;;19.10;57.50;;;;;;4787622;30;20187;-84
2021/11/27 02:08:13;;;;;;;1.83;1.08;;;19.10;57.80;;;;;;4787282;30;20308;-84
2021/11/27 02:10:40;;;;;;;2.50;1.35;;;19.10;57.60;;;;;;4786402;30;20164;-84
2021/11/27 02:13:07;;;;;;;1.35;1.00;;;19.10;57.60;;;;;;4772222;30;20175;-84
2021/11/27 02:15:32;;;;;;;3.20;1.13;;;19.10;58.20;;;;;;4771818;30;20208;-84
2021/11/27 02:17:58;;;;;;;1.77;1.10;;;19.10;58.20;;;;;;4785606;30;20231;-84
2021/11/27 02:20:25;;;;;;;3.50;1.50;;;19.10;58.10;;;;;;4771343;30;20228;-84
2021/11/27 02:22:51;;;;;;;2.65;1.20;;;19.10;58.00;;;;;;4786698;30;20167;-84
2021/11/27 02:25:19;;;;;;;2.55;1.30;;;19.20;57.80;;;;;;4771666;30;20178;-84
2021/11/27 02:27:48;;;;;;;2.92;1.17;;;19.10;58.00;;;;;;4786927;30;20160;-84
2021/11/27 02:30:15;;;;;;;2.55;1.20;;;19.10;58.20;;;;;;4771625;30;20726;-84
2021/11/27 02:32:42;;;;;;;2.95;1.13;;;19.10;57.80;;;;;;4786442;30;20246;-84
2021/11/27 02:35:08;;;;;;;2.22;1.30;;;19.10;57.30;;;;;;4772158;30;20175;-84
2021/11/27 02:37:34;;;;;;;2.13;0.98;;;19.10;57.30;;;;;;4771326;30;20210;-83
2021/11/27 02:40:00;;;;;;;2.10;1.10;;;19.10;58.70;;;;;;4771596;30;20175;-84
2021/11/27 02:42:27;;;;;;;2.58;1.13;;;19.00;58.00;;;;;;4786050;30;20182;-84
2021/11/27 02:44:53;;;;;;;2.10;1.00;;;19.10;57.70;;;;;;4785862;30;20191;-84
2021/11/27 02:47:20;;;;;;;2.58;1.17;;;19.10;57.70;;;;;;4786060;30;20180;-83
2021/11/27 02:49:47;;;;;;;2.53;1.00;;;19.10;57.90;;;;;;4785951;30;20168;-84
2021/11/27 02:52:14;;;;;;;4.25;1.27;;;19.10;57.70;;;;;;4786546;30;20167;-84
2021/11/27 02:54:39;;;;;;;1.95;1.25;;;19.10;57.80;;;;;;4786009;30;20201;-84
2021/11/27 02:57:05;;;;;;;1.83;1.10;;;19.10;57.50;;;;;;4770814;30;20180;-84
2021/11/27 02:59:32;;;;;;;2.03;1.17;;;19.10;57.40;;;;;;4786656;30;20171;-84
2021/11/27 03:01:59;;;;;;;3.50;1.40;;;19.10;57.30;;;;;;4785772;30;20175;-84
2021/11/27 03:04:28;;;;;;;2.00;1.20;;;19.10;57.00;;;;;;4786652;30;20195;-83
2021/11/27 03:06:54;;;;;;;2.55;1.25;;;19.10;57.70;;;;;;4785619;29;20207;-83
2021/11/27 03:09:21;;;;;;;1.23;0.90;;;19.10;57.30;;;;;;4786140;30;20189;-83
2021/11/27 03:11:50;;;;;;;2.88;1.13;;;19.10;57.20;;;;;;4786001;30;20270;-83
2021/11/27 03:14:19;;;;;;;1.52;1.02;;;19.10;57.40;;;;;;4786352;30;20196;-83
2021/11/27 03:16:48;;;;;;;1.52;1.08;;;19.10;57.10;;;;;;4785627;30;20188;-83
2021/11/27 03:19:14;;;;;;;1.58;1.10;;;19.10;56.90;;;;;;4785744;30;20170;-83
2021/11/27 03:21:41;;;;;;;2.65;1.15;;;19.10;57.00;;;;;;4771179;30;20255;-83
2021/11/27 03:24:07;;;;;;;2.22;1.40;;;19.10;57.20;;;;;;4785746;30;20187;-83
2021/11/27 03:26:35;;;;;;;2.10;0.95;;;19.10;56.90;;;;;;4771112;30;20186;-83
2021/11/27 03:29:00;;;;;;;2.25;1.20;;;19.10;56.80;;;;;;4770125;30;20184;-83
2021/11/27 03:31:28;;;;;;;2.42;1.08;;;19.00;57.00;;;;;;4786139;30;20190;-83
2021/11/27 03:33:58;;;;;;;3.03;1.17;;;19.10;57.10;;;;;;4785669;30;20179;-83
2021/11/27 03:36:24;;;;;;;1.55;1.25;;;19.10;57.10;;;;;;4785484;30;20187;-83
2021/11/27 03:38:50;;;;;;;1.70;0.90;;;19.10;57.10;;;;;;4770442;30;20179;-85
2021/11/27 03:41:16;;;;;;;1.95;1.27;;;19.00;56.90;;;;;;4785128;30;20183;-83
2021/11/27 03:43:42;;;;;;;2.10;1.30;;;19.00;57.00;;;;;;4770555;30;20214;-83
2021/11/27 03:46:08;;;;;;;2.72;1.23;;;19.00;56.90;;;;;;4784806;30;20164;-83
2021/11/27 03:48:38;;;;;;;1.60;1.05;;;19.00;57.10;;;;;;4785108;30;20270;-83
2021/11/27 03:51:10;;;;;;;1.70;1.08;;;19.00;57.40;;;;;;4784992;30;20176;-83
2021/11/27 03:53:40;;;;;;;1.98;1.27;;;19.00;57.20;;;;;;4751665;30;20219;-83
2021/11/27 03:56:08;;;;;;;2.55;1.33;;;19.00;57.10;;;;;;4766620;30;20293;-83
2021/11/27 03:58:34;;;;;;;1.10;0.90;;;19.00;57.10;;;;;;4752050;30;20184;-82
2021/11/27 04:01:00;;;;;;;1.30;1.10;;;19.00;57.30;;;;;;4766720;30;20195;-82
2021/11/27 04:03:26;;;;;;;2.95;1.73;;;19.00;56.80;;;;;;4765945;30;20204;-82
2021/11/27 04:05:56;;;;;;;1.83;1.20;;;19.00;57.40;;;;;;4766672;30;20200;-82
2021/11/27 04:08:22;;;;;;;1.98;1.05;;;19.00;57.00;;;;;;4750997;30;20287;-82
2021/11/27 04:10:50;;;;;;;1.75;1.20;;;19.00;57.50;;;;;;4751562;30;20239;-82
2021/11/27 04:13:18;;;;;;;1.98;1.20;;;19.00;57.10;;;;;;4766384;30;20272;-82
2021/11/27 04:15:45;;;;;;;2.35;1.15;;;19.00;56.80;;;;;;4766788;30;20204;-83
2021/11/27 04:18:12;;;;;;;2.53;1.20;;;19.00;57.30;;;;;;4766522;30;20172;-82
2021/11/27 04:20:38;;;;;;;1.88;1.20;;;19.00;57.50;;;;;;4751439;30;20180;-82
2021/11/27 04:23:06;;;;;;;1.80;0.93;;;19.00;57.20;;;;;;4765938;30;20203;-82
2021/11/27 04:25:32;;;;;;;2.20;1.10;;;19.00;57.50;;;;;;4766500;30;20262;-82
2021/11/27 04:27:58;;;;;;;1.38;1.10;;;19.00;56.80;;;;;;4751369;30;20176;-82
2021/11/27 04:30:26;;;;;;;1.95;1.02;;;19.00;57.30;;;;;;4751285;30;20226;-82
2021/11/27 04:32:53;;;;;;;1.55;0.93;;;19.00;56.90;;;;;;4751495;30;20172;-83
2021/11/27 04:35:19;;;;;;;2.15;1.30;;;19.00;56.80;;;;;;4765966;30;20160;-82
2021/11/27 04:37:51;;;;;;;2.30;1.00;;;19.00;57.10;;;;;;4778217;30;20220;-83
2021/11/27 04:40:18;;;;;;;2.22;1.15;;;19.00;57.00;;;;;;4783883;30;20178;-82
2021/11/27 04:42:44;;;;;;;1.98;1.05;;;19.00;57.20;;;;;;4784047;30;20171;-82
2021/11/27 04:45:10;;;;;;;1.20;1.10;;;19.00;57.00;;;;;;4769126;30;20214;-82
2021/11/27 04:47:35;;;;;;;2.25;1.00;;;19.00;57.00;;;;;;4769946;30;20171;-82
2021/11/27 04:50:03;;;;;;;2.47;1.10;;;19.00;56.90;;;;;;4784251;30;20171;-82
2021/11/27 04:52:29;;;;;;;2.05;1.20;;;19.00;56.90;;;;;;4783996;30;20248;-83
2021/11/27 04:54:58;;;;;;;1.48;1.10;;;19.00;56.70;;;;;;4785186;30;20179;-82
2021/11/27 04:57:24;;;;;;;1.58;1.20;;;19.00;56.70;;;;;;4769449;30;20233;-82
2021/11/27 04:59:49;;;;;;;2.38;1.20;;;19.00;57.10;;;;;;4784048;30;20179;-83
2021/11/27 05:02:16;;;;;;;1.40;1.00;;;19.00;57.00;;;;;;4784772;30;20531;-82
2021/11/27 05:04:42;;;;;;;1.42;1.00;;;19.00;56.90;;;;;;4784644;30;20199;-82
2021/11/27 05:07:07;;;;;;;2.15;1.13;;;19.00;57.10;;;;;;4784653;30;20238;-82
2021/11/27 05:09:33;;;;;;;1.42;0.98;;;19.00;56.90;;;;;;4784476;30;20163;-82
2021/11/27 05:12:01;;;;;;;2.53;1.08;;;18.90;56.40;;;;;;4784210;30;20513;-81
2021/11/27 05:14:27;;;;;;;1.40;1.08;;;19.00;56.70;;;;;;4769154;30;20213;-82
2021/11/27 05:16:52;;;;;;;1.25;0.90;;;19.00;56.90;;;;;;4784110;30;20176;-82
2021/11/27 05:19:20;;;;;;;1.27;1.10;;;19.00;57.20;;;;;;4769788;30;20195;-82
2021/11/27 05:21:47;;;;;;;1.23;0.90;;;19.00;56.90;;;;;;4784200;30;20248;-82
2021/11/27 05:24:13;;;;;;;2.83;0.90;;;19.00;56.80;;;;;;4765374;30;20624;-82
2021/11/27 05:26:38;;;;;;;1.55;1.20;;;18.90;56.90;;;;;;4736459;30;20193;-82
2021/11/27 05:29:04;;;;;;;2.22;1.13;;;19.00;56.70;;;;;;4750695;30;20199;-82
2021/11/27 05:31:31;;;;;;;1.40;0.95;;;19.00;56.60;;;;;;4766047;30;20169;-82
2021/11/27 05:36:45;;;;;;;1.30;1.20;;;19.00;56.60;;;;;;4755491;30;20176;-81
2021/11/27 05:39:12;;;;;;;1.30;1.10;;;18.90;56.70;;;;;;4751352;30;20196;-82
2021/11/27 05:41:38;;;;;;;2.25;1.10;;;19.00;56.70;;;;;;4764603;30;20300;-81
2021/11/27 05:44:03;;;;;;;1.77;1.10;;;19.00;56.90;;;;;;4765360;30;20220;-82
2021/11/27 05:46:31;;;;;;;2.55;1.20;;;19.00;56.60;;;;;;4750357;30;20179;-82
2021/11/27 05:48:57;;;;;;;4.07;1.40;;;19.00;56.90;;;;;;4750699;30;20680;-82
2021/11/27 05:51:23;;;;;;;1.52;1.00;;;18.90;56.80;;;;;;4751180;30;20179;-82
2021/11/27 05:53:48;;;;;;;1.63;0.93;;;18.90;56.60;;;;;;4753442;30;20256;-82
2021/11/27 05:56:15;;;;;;;2.85;1.10;;;18.90;56.40;;;;;;4785350;30;20199;-82
2021/11/27 05:58:41;;;;;;;1.55;1.13;;;18.90;56.60;;;;;;4803145;30;20168;-82
2021/11/27 06:01:09;;;;;;;1.02;0.93;;;18.90;56.90;;;;;;4786554;30;20651;-81
2021/11/27 06:03:35;;;;;;;1.75;1.27;;;18.90;56.60;;;;;;4772207;30;20233;-82
2021/11/27 06:06:01;;;;;;;2.47;1.20;;;18.90;56.60;;;;;;4772374;30;20253;-82
2021/11/27 06:08:30;;;;;;;1.48;1.10;;;18.90;56.70;;;;;;4786771;30;20231;-82
2021/11/27 06:10:59;;;;;;;2.78;1.35;;;18.90;56.60;;;;;;4802570;30;20684;-82
2021/11/27 06:13:24;;;;;;;1.27;1.17;;;18.90;56.80;;;;;;4785655;30;20219;-82
2021/11/27 06:15:51;;;;;;;1.15;1.02;;;19.00;56.70;;;;;;4771424;30;20187;-81
2021/11/27 06:18:17;;;;;;;2.58;1.20;;;18.90;56.60;;;;;;4772112;30;20184;-82
2021/11/27 06:20:43;;;;;;;1.27;0.90;;;18.90;56.60;;;;;;4772175;30;20209;-81
2021/11/27 06:23:10;;;;;;;1.95;1.13;;;18.90;56.40;;;;;;4772006;30;20186;-81
2021/11/27 06:25:38;;;;;;;1.70;1.00;;;18.90;56.70;;;;;;4766396;30;20181;-81
2021/11/27 06:28:05;;;;;;;2.03;1.20;;;18.90;56.60;;;;;;4783380;30;20161;-81
2021/11/27 06:30:30;;;;;;;1.73;1.15;;;18.90;56.70;;;;;;4783719;30;20176;-81
2021/11/27 06:32:56;;;;;;;1.52;1.08;;;18.90;56.80;;;;;;4783056;30;20171;-82
2021/11/27 06:35:23;;;;;;;1.77;0.88;;;18.90;56.70;;;;;;4768854;30;20180;-81
2021/11/27 06:37:52;;;;;;;1.60;1.10;;;18.90;56.70;;;;;;4769086;30;20183;-81
2021/11/27 06:40:20;;;;;;;1.10;1.00;;;18.90;56.50;;;;;;4786989;30;20180;-81
2021/11/27 06:42:45;;;;;;;1.77;1.08;;;18.90;56.60;;;;;;4786693;30;20243;-81
2021/11/27 06:45:11;;;;;;;2.00;1.00;;;18.90;56.30;;;;;;4771970;30;20234;-82
2021/11/27 06:47:37;;;;;;;1.60;0.95;;;18.90;56.60;;;;;;4771637;30;20164;-81
2021/11/27 06:50:04;;;;;;;2.80;1.20;;;18.90;56.40;;;;;;4786634;30;20164;-82
2021/11/27 06:52:29;;;;;;;2.05;1.20;;;18.90;56.50;;;;;;4771334;30;20168;-82
2021/11/27 06:54:55;;;;;;;1.38;1.23;;;18.90;56.50;;;;;;4786012;30;20250;-81
2021/11/27 06:57:21;;;;;;;1.63;1.10;;;18.90;56.10;;;;;;4770985;30;20171;-82
2021/11/27 06:59:51;;;;;;;1.67;0.90;;;18.90;56.50;;;;;;4771582;30;20179;-81
2021/11/27 07:02:17;;;;;;;1.00;0.80;;;18.90;56.70;;;;;;4785827;29;20204;-81
2021/11/27 07:04:43;;;;;;;1.80;1.30;;;18.90;56.40;;;;;;4771281;30;20227;-81
2021/11/27 07:07:09;;;;;;;1.55;1.02;;;18.90;56.30;;;;;;4801856;30;20231;-81
2021/11/27 07:09:35;;;;;;;1.83;1.20;;;18.90;56.40;;;;;;4786063;30;20172;-81
2021/11/27 07:12:02;;;;;;;1.13;0.90;;;18.90;56.10;;;;;;4771275;30;20572;-82
2021/11/27 07:14:29;;;;;;;1.08;0.98;;;18.90;55.90;;;;;;4771368;30;20183;-81
2021/11/27 07:16:55;;;;;;;2.50;1.20;;;19.00;55.50;;;;;;4786399;30;20655;-81
2021/11/27 07:19:28;;;;;;;2.78;1.15;;;18.90;55.50;;;;;;4771039;30;20196;-83
2021/11/27 07:21:53;;;;;;;3.60;1.05;;;19.00;55.40;;;;;;4770809;30;20183;-81
2021/11/27 07:24:20;;;;;;;3.95;1.38;;;19.00;55.30;;;;;;4770485;30;20234;-82
2021/11/27 07:26:46;;;;;;;3.38;1.05;;;19.10;55.30;;;;;;4770731;30;20179;-81
2021/11/27 07:29:11;;;;;;;2.67;1.20;;;19.20;55.20;;;;;;4756256;30;20179;-81
2021/11/27 07:31:40;;;;;;;1.42;1.20;;;19.20;55.30;;;;;;4755862;30;20176;-81
2021/11/27 07:34:12;;;;;;;1.25;1.00;;;19.30;55.20;;;;;;4785617;30;20187;-82
2021/11/27 07:36:42;;;;;;;2.50;1.27;;;19.20;55.00;;;;;;4784518;30;20175;-81
2021/11/27 07:39:10;;;;;;;4.60;1.25;;;19.30;55.00;;;;;;4784568;30;20179;-81
2021/11/27 07:41:36;;;;;;;3.95;1.30;;;19.30;54.80;;;;;;4768491;30;20195;-81
2021/11/27 07:44:01;;;;;;;2.30;1.05;;;19.40;54.60;;;;;;4783167;30;20203;-80
2021/11/27 07:46:29;;;;;;;3.38;1.20;;;19.40;54.40;;;;;;4783206;30;20186;-82
2021/11/27 07:48:56;;;;;;;2.35;1.00;;;19.50;54.40;;;;;;4768458;30;20203;-81
2021/11/27 07:51:23;;;;;;;2.35;1.02;;;19.50;54.10;;;;;;4769205;30;20240;-81
2021/11/27 07:53:49;;;;;;;2.05;0.93;;;19.60;53.80;;;;;;4781586;30;20171;-83
2021/11/27 07:56:20;;;;;;;1.67;1.13;;;19.60;53.30;;;;;;4766229;30;20202;-81
2021/11/27 07:58:46;;;;;;;2.95;1.17;;;19.60;52.90;;;;;;4781622;30;20612;-81
2021/11/27 08:01:16;;;;;;;2.25;0.90;;;19.60;53.20;;;;;;4766612;30;20205;-80
2021/11/27 08:03:42;;;;;;;3.90;1.05;;;19.60;53.20;;;;;;4781944;30;20219;-82
2021/11/27 08:06:10;;;;;;;6.00;1.30;;;19.60;52.90;;;;;;4767932;30;20175;-82
2021/11/27 08:08:38;;;;;;;2.33;1.13;;;19.60;52.60;;;;;;4768913;30;20262;-80
2021/11/27 08:11:05;;;;;;;1.80;1.10;;;19.60;53.40;;;;;;4769278;30;20240;-80
2021/11/27 08:13:32;;;;;;;3.13;1.00;;;19.70;53.00;;;;;;4783569;30;20170;-80
2021/11/27 08:16:07;;;;;;;5.43;0.93;;;19.70;52.50;;;;;;4783468;30;20178;-81
2021/11/27 08:18:33;;;;;;;5.90;1.20;;;19.70;53.00;;;;;;4785284;30;20167;-82
2021/11/27 08:21:03;;;;;;;2.25;0.93;;;19.70;53.00;;;;;;4770390;30;20266;-79
2021/11/27 08:23:30;;;;;;;2.08;1.20;;;19.70;53.20;;;;;;4769649;30;20229;-80
2021/11/27 08:25:57;;;;;;;3.58;1.40;;;19.70;54.10;;;;;;4783489;30;20649;-81
2021/11/27 08:28:23;;;;;;;4.03;1.02;;;19.70;53.40;;;;;;4768398;30;20167;-81
2021/11/27 08:30:48;;;;;;;5.00;1.30;;;19.70;53.50;;;;;;4769059;30;20167;-81
2021/11/27 08:33:14;;;;;;;4.38;1.00;;;19.70;53.40;;;;;;4768076;30;20160;-80
2021/11/27 08:35:42;;;;;;;3.65;1.20;;;19.70;53.70;;;;;;4768042;30;20264;-81
2021/11/27 08:38:09;;;;;;;3.85;1.10;;;19.70;53.50;;;;;;4769427;30;20163;-80
2021/11/27 08:40:35;;;;;;;3.83;1.00;;;19.80;53.80;;;;;;4783048;30;20164;-81
2021/11/27 08:43:01;;;;;;;5.80;1.55;;;19.70;53.80;;;;;;4783902;30;20159;-81
2021/11/27 08:45:29;;;;;;;1.42;1.00;;;19.70;54.00;;;;;;4783667;30;20683;-80
2021/11/27 08:47:55;;;;;;;1.98;1.20;;;19.70;53.80;;;;;;4781882;30;20257;-81
2021/11/27 08:50:21;;;;;;;1.38;1.10;;;19.70;54.00;;;;;;4765937;30;20187;-80
2021/11/27 08:52:46;;;;;;;5.75;1.30;;;19.70;53.80;;;;;;4761826;30;20624;-79
2021/11/27 08:55:19;;;;;;;4.03;1.17;;;19.80;53.60;;;;;;4778151;30;20243;-80
2021/11/27 08:57:46;;;;;;;5.55;1.20;;;19.80;53.40;;;;;;4775855;30;20159;-81
2021/11/27 09:00:12;;;;;;;4.22;1.20;;;19.80;53.20;;;;;;4744777;30;20728;-79
2021/11/27 09:02:39;;;;;;;2.85;1.30;;;19.90;53.20;;;;;;4726597;30;20213;-79
2021/11/27 09:05:06;;;;;;;5.20;1.50;;;19.90;53.50;;;;;;4757678;30;20250;-81
2021/11/27 09:07:31;;;;;;;4.97;1.17;;;19.90;53.50;;;;;;4759287;30;20262;-81
2021/11/27 09:10:03;;;;;;;6.05;1.13;;;19.90;53.50;;;;;;4740210;30;20214;-79
2021/11/27 09:12:29;;;;;;;4.68;1.30;;;19.90;53.40;;;;;;4772303;30;20758;-79
2021/11/27 09:14:55;;;;;;;6.60;1.30;;;19.90;53.80;;;;;;4770161;30;20305;-79
2021/11/27 09:17:22;;;;;;;5.15;1.30;;;20.00;53.40;;;;;;4759574;30;20164;-80
2021/11/27 09:19:47;;;;;;;6.38;1.30;;;20.00;53.00;;;;;;4741326;30;20657;-80
2021/11/27 09:22:13;;;;;;;4.47;1.30;;;20.00;53.40;;;;;;4760049;30;20220;-83
2021/11/27 09:24:39;;;;;;;5.63;1.40;;;20.00;53.10;;;;;;4757380;30;20219;-80
2021/11/27 09:27:11;;;;;;;6.38;1.50;;;20.00;53.30;;;;;;4761608;30;20187;-81
2021/11/27 09:29:39;;;;;;;4.25;1.40;;;20.00;53.90;;;;;;4761428;30;20205;-81
2021/11/27 09:32:05;;;;;;;6.20;1.55;;;20.00;53.80;;;;;;4761379;30;20184;-82
2021/11/27 09:34:32;;;;;;;5.80;1.27;;;20.10;54.00;;;;;;4746686;30;20188;-81
2021/11/27 09:36:59;;;;;;;5.97;1.40;;;20.10;53.90;;;;;;4765626;30;20195;-82
2021/11/27 09:39:25;;;;;;;4.15;1.52;;;20.00;53.80;;;;;;4780435;30;20203;-81
2021/11/27 09:41:51;;;;;;;5.32;1.30;;;20.10;53.70;;;;;;4767862;30;20183;-82
2021/11/27 09:44:18;;;;;;;8.00;1.50;;;20.00;53.80;;;;;;4781652;30;20651;-82
2021/11/27 09:46:50;;;;;;;9.07;1.40;;;20.00;53.80;;;;;;4766950;30;20215;-79
2021/11/27 09:49:19;;;;;;;5.85;1.50;;;20.10;54.00;;;;;;4763862;30;20167;-80
2021/11/27 09:51:45;;;;;;;14.65;1.42;;;20.00;53.50;;;;;;4782964;30;20164;-80
2021/11/27 09:54:16;;;;;;;3.53;1.30;;;20.00;53.70;;;;;;4767156;30;20168;-81
2021/11/27 09:56:43;;;;;;;5.35;1.45;;;20.10;53.90;;;;;;4780075;30;20180;-81
2021/11/27 09:59:08;;;;;;;10.73;1.45;;;20.10;54.30;;;;;;4767471;30;20213;-81
2021/11/27 10:01:35;;;;;;;6.75;1.67;;;20.00;54.10;;;;;;4782582;30;20176;-79
2021/11/27 10:04:06;;;;;;;8.38;1.50;;;20.00;54.10;;;;;;4778884;30;20207;-80
2021/11/27 10:06:36;;;;;;;11.75;1.80;;;20.00;54.00;;;;;;4762841;30;20523;-80
2021/11/27 10:09:33;;;;;;;;;;;;;;;;;;;;;
2021/11/27 10:12:07;;;;;;;7.32;1.63;;;20.10;54.50;;;;;;4761323;30;20268;-83
2021/11/27 10:14:39;;;;;;;11.43;1.55;;;20.00;54.40;;;;;;4749297;30;20190;-81
2021/11/27 10:17:20;;;;;;;6.63;1.85;;;20.10;54.70;;;;;;4751077;30;20195;-82
2021/11/27 10:19:51;;;;;;;9.23;1.80;;;20.10;54.80;;;;;;4761327;30;20200;-81
2021/11/27 10:22:22;;;;;;;7.85;1.60;;;20.10;54.60;;;;;;4761799;30;20220;-82
2021/11/27 10:24:50;;;;;;;9.27;1.80;;;20.10;54.50;;;;;;4764322;30;20799;-82
2021/11/27 10:27:19;;;;;;;8.70;1.38;;;20.10;54.30;;;;;;4748091;30;20193;-81
2021/11/27 10:29:54;;;;;;;7.55;1.52;;;20.10;54.10;;;;;;4733868;30;20282;-80
2021/11/27 10:32:22;;;;;;;11.88;2.00;;;20.10;54.10;;;;;;4749131;30;20188;-80
2021/11/27 10:34:52;;;;;;;6.07;1.33;;;20.10;54.50;;;;;;4749324;30;20268;-79
2021/11/27 10:37:40;;;;;;;13.05;1.98;;;20.10;54.70;;;;;;4761814;30;20319;-81
2021/11/27 10:40:14;;;;;;;4.97;1.08;;;20.10;54.60;;;;;;4747068;30;20222;-80
2021/11/27 10:42:45;;;;;;;5.38;1.67;;;20.10;54.40;;;;;;4762883;30;20204;-80
2021/11/27 10:45:16;;;;;;;4.00;1.55;;;20.00;54.70;;;;;;4732968;30;20225;-80
2021/11/27 10:47:57;;;;;;;;;;;;;;;;;;;;;
2021/11/27 10:50:29;;;;;;;10.60;1.60;;;20.10;54.20;;;;;;4705583;30;20271;-82
2021/11/27 10:52:56;;;;;;;4.80;1.60;;;20.00;54.60;;;;;;4708820;30;20203;-81
2021/11/27 10:55:24;;;;;;;7.72;1.58;;;20.00;54.80;;;;;;4710765;30;20174;-83
2021/11/27 10:57:55;;;;;;;9.73;1.60;;;20.10;54.90;;;;;;4698075;30;20686;-81
2021/11/27 11:00:41;;;;;;;4.88;1.35;;;20.10;54.90;;;;;;4696388;30;20170;-81
2021/11/27 11:03:38;;;;;;;8.00;1.67;;;20.10;55.20;;;;;;4696682;30;20194;-81
2021/11/27 11:06:17;;;;;;;7.78;1.65;;;20.10;55.20;;;;;;4695508;30;20187;-81
2021/11/27 11:08:43;;;;;;;9.73;1.85;;;20.00;55.50;;;;;;4721036;30;20269;-81
2021/11/27 11:11:26;;;;;;;8.07;1.50;;;20.00;55.60;;;;;;4724493;30;20209;-82
2021/11/27 11:13:57;;;;;;;7.28;1.85;;;20.00;55.60;;;;;;4726886;30;20224;-81
2021/11/27 11:16:26;;;;;;;11.68;1.70;;;20.00;55.60;;;;;;4725350;30;20219;-80
2021/11/27 11:19:06;;;;;;;9.85;1.85;;;20.00;55.60;;;;;;4732527;30;20194;-83
2021/11/27 11:21:35;;;;;;;18.63;1.88;;;20.00;55.80;;;;;;4780481;30;20187;-83
2021/11/27 11:24:01;;;;;;;10.15;1.50;;;20.00;56.70;;;;;;4779771;30;20232;-82
2021/11/27 11:26:31;;;;;;;16.60;1.70;;;20.00;56.20;;;;;;4780255;30;20226;-82
2021/11/27 11:28:57;;;;;;;11.00;1.60;;;20.00;56.40;;;;;;4777814;30;20256;-82
2021/11/27 11:31:25;;;;;;;9.63;1.67;;;20.00;56.40;;;;;;4778842;30;20257;-81
2021/11/27 11:33:54;;;;;;;11.40;1.90;;;19.90;56.60;;;;;;4777971;30;20684;-81
2021/11/27 11:36:20;;;;;;;8.32;1.58;;;20.00;56.60;;;;;;4776030;30;20176;-82
2021/11/27 11:38:50;;;;;;;3.80;1.40;;;19.90;56.40;;;;;;4779647;30;20178;-80
2021/11/27 11:41:17;;;;;;;8.25;1.33;;;20.00;56.30;;;;;;4781909;30;20235;-82
2021/11/27 11:43:43;;;;;;;6.20;1.30;;;19.90;55.60;;;;;;4782729;30;20227;-80
2021/11/27 11:46:11;;;;;;;5.80;1.60;;;20.00;55.70;;;;;;4767748;30;20179;-81
2021/11/27 11:48:38;;;;;;;6.00;1.95;;;19.90;56.40;;;;;;4769106;30;20164;-81
2021/11/27 11:51:27;;;;;;;5.65;1.30;;;19.90;56.40;;;;;;4766868;30;20167;-83
2021/11/27 11:53:54;;;;;;;8.75;1.80;;;19.90;56.10;;;;;;4782347;30;20168;-81
2021/11/27 11:56:23;;;;;;;7.25;1.58;;;19.90;56.30;;;;;;4767807;30;20187;-81
2021/11/27 11:58:51;;;;;;;5.82;1.63;;;19.90;56.20;;;;;;4770276;30;20172;-81
2021/11/27 12:01:18;;;;;;;9.13;1.75;;;20.00;56.30;;;;;;4769058;30;20175;-84
2021/11/27 12:03:46;;;;;;;6.65;1.65;;;19.90;56.20;;;;;;4780556;30;20191;-82
2021/11/27 12:06:25;;;;;;;10.27;1.70;;;19.90;57.00;;;;;;4763166;30;20583;-81
2021/11/27 12:08:55;;;;;;;7.78;1.83;;;20.00;56.40;;;;;;4765740;30;20353;-82
2021/11/27 12:11:57;;;;;;;5.75;2.00;;;20.00;56.50;;;;;;4766752;30;20244;-81
2021/11/27 12:14:26;;;;;;;8.57;1.60;;;19.90;56.70;;;;;;4779554;30;20254;-81
2021/11/27 12:17:14;;;;;;;4.65;1.50;;;20.00;57.00;;;;;;4779474;30;20188;-82
2021/11/27 12:19:56;;;;;;;8.73;1.90;;;20.00;57.40;;;;;;4765407;30;20266;-82
2021/11/27 12:22:34;;;;;;;9.15;1.80;;;20.00;57.20;;;;;;4795685;30;20572;-82
2021/11/27 12:25:23;;;;;;;6.43;1.70;;;19.90;57.20;;;;;;4778435;30;20292;-80
2021/11/27 12:28:16;;;;;;;5.78;1.55;;;20.00;56.60;;;;;;4777973;30;20172;-81
2021/11/27 12:31:01;;;;;;;11.75;1.67;;;20.00;56.50;;;;;;4792020;30;20171;-82
2021/11/27 12:33:59;;;;;;;11.27;1.70;;;20.00;56.70;;;;;;4777931;30;20631;-81
2021/11/27 12:36:46;;;;;;;10.52;1.48;;;20.00;56.80;;;;;;4793913;30;20266;-83
2021/11/27 12:39:16;;;;;;;5.90;1.92;;;20.00;57.00;;;;;;4781473;30;20616;-82
2021/11/27 12:41:47;;;;;;;9.02;1.50;;;19.90;56.90;;;;;;4778932;30;20178;-82
2021/11/27 12:44:26;;;;;;;6.90;1.60;;;20.00;57.50;;;;;;4762708;30;20235;-82
2021/11/27 12:47:45;;;;;;;9.82;1.70;;;19.90;57.30;;;;;;4775760;30;20194;-85
2021/11/27 12:50:15;;;;;;;4.65;1.70;;;20.00;56.90;;;;;;4761994;30;20249;-82
2021/11/27 12:52:42;;;;;;;4.28;1.60;;;20.00;56.50;;;;;;4761776;30;20176;-82
2021/11/27 12:55:28;;;;;;;7.80;1.80;;;20.00;56.50;;;;;;4779208;30;20179;-82
2021/11/27 12:58:02;;;;;;;8.90;1.45;;;20.00;56.50;;;;;;4759475;30;20215;-82